sensor_id;sensor_type;location;lat;lon;timestamp;pressure;altitude;pressure_sealevel;temperature;humidity
74680;BME280;63211;48.548;2.704;2023-05-29T00:00:19;100934.47;;;20.29;56.96
74680;BME280;63211;48.548;2.704;2023-05-29T00:02:46;100935.53;;;20.28;57.06
74680;BME280;63211;48.548;2.704;2023-05-29T00:05:14;100930.91;;;20.28;56.81
74680;BME280;63211;48.548;2.704;2023-05-29T00:07:41;100932.19;;;20.25;56.82
74680;BME280;63211;48.548;2.704;2023-05-29T00:10:09;100940.19;;;20.27;56.96
74680;BME280;63211;48.548;2.704;2023-05-29T00:12:36;100934.72;;;20.27;56.74
74680;BME280;63211;48.548;2.704;2023-05-29T00:15:06;100938.75;;;20.24;56.83
74680;BME280;63211;48.548;2.704;2023-05-29T00:17:32;100940.63;;;20.24;56.88
74680;BME280;63211;48.548;2.704;2023-05-29T00:19:59;100869.75;;;19.81;56.76
74680;BME280;63211;48.548;2.704;2023-05-29T00:22:28;100937.28;;;20.22;56.50
74680;BME280;63211;48.548;2.704;2023-05-29T00:24:55;100944.44;;;20.23;57.06
74680;BME280;63211;48.548;2.704;2023-05-29T00:27:22;100935.63;;;20.21;56.73
74680;BME280;63211;48.548;2.704;2023-05-29T00:29:48;100927.66;;;20.19;56.39
74680;BME280;63211;48.548;2.704;2023-05-29T00:32:16;100933.97;;;20.20;56.57
74680;BME280;63211;48.548;2.704;2023-05-29T00:34:43;100908.34;;;20.03;57.00
74680;BME280;63211;48.548;2.704;2023-05-29T00:37:10;100936.09;;;20.18;56.52
74680;BME280;63211;48.548;2.704;2023-05-29T00:39:36;100931.94;;;20.15;56.60
74680;BME280;63211;48.548;2.704;2023-05-29T00:42:03;100922.53;;;20.11;56.28
74680;BME280;63211;48.548;2.704;2023-05-29T00:44:30;100929.22;;;20.15;56.07
74680;BME280;63211;48.548;2.704;2023-05-29T00:46:57;100933.84;;;20.15;56.53
74680;BME280;63211;48.548;2.704;2023-05-29T00:49:25;100933.00;;;20.14;55.69
74680;BME280;63211;48.548;2.704;2023-05-29T00:51:52;100924.44;;;20.11;56.20
74680;BME280;63211;48.548;2.704;2023-05-29T00:54:24;100913.59;;;20.04;55.63
74680;BME280;63211;48.548;2.704;2023-05-29T00:56:52;100936.00;;;20.24;56.74
74680;BME280;63211;48.548;2.704;2023-05-29T00:59:19;100932.72;;;20.34;56.59
74680;BME280;63211;48.548;2.704;2023-05-29T01:01:47;100935.31;;;20.29;57.02
74680;BME280;63211;48.548;2.704;2023-05-29T01:04:16;100927.56;;;20.26;56.94
74680;BME280;63211;48.548;2.704;2023-05-29T01:06:44;100933.50;;;20.23;57.03
74680;BME280;63211;48.548;2.704;2023-05-29T01:09:11;100930.16;;;20.21;56.95
74680;BME280;63211;48.548;2.704;2023-05-29T01:11:45;100930.84;;;20.16;56.29
74680;BME280;63211;48.548;2.704;2023-05-29T01:14:23;100936.69;;;20.20;56.69
74680;BME280;63211;48.548;2.704;2023-05-29T01:16:59;100935.84;;;20.19;56.48
74680;BME280;63211;48.548;2.704;2023-05-29T01:19:38;100940.72;;;20.17;56.46
74680;BME280;63211;48.548;2.704;2023-05-29T01:22:12;100929.44;;;20.14;56.42
74680;BME280;63211;48.548;2.704;2023-05-29T01:24:48;100937.97;;;20.17;56.15
74680;BME280;63211;48.548;2.704;2023-05-29T01:27:18;100936.91;;;20.18;56.16
74680;BME280;63211;48.548;2.704;2023-05-29T01:29:46;100925.38;;;20.16;56.18
74680;BME280;63211;48.548;2.704;2023-05-29T01:32:13;100926.22;;;20.17;56.07
74680;BME280;63211;48.548;2.704;2023-05-29T01:34:39;100925.66;;;20.15;56.14
74680;BME280;63211;48.548;2.704;2023-05-29T01:37:06;100926.47;;;20.15;55.94
74680;BME280;63211;48.548;2.704;2023-05-29T01:39:33;100930.28;;;20.14;55.77
74680;BME280;63211;48.548;2.704;2023-05-29T01:42:00;100933.00;;;20.14;55.86
74680;BME280;63211;48.548;2.704;2023-05-29T01:44:29;100939.53;;;20.13;55.74
74680;BME280;63211;48.548;2.704;2023-05-29T01:46:56;100938.94;;;20.11;55.76
74680;BME280;63211;48.548;2.704;2023-05-29T01:49:24;100933.47;;;20.11;55.75
74680;BME280;63211;48.548;2.704;2023-05-29T01:51:52;100919.88;;;20.05;55.72
74680;BME280;63211;48.548;2.704;2023-05-29T01:54:18;100921.78;;;20.04;55.68
74680;BME280;63211;48.548;2.704;2023-05-29T01:56:46;100937.50;;;20.09;55.64
74680;BME280;63211;48.548;2.704;2023-05-29T01:59:14;100932.03;;;20.09;55.80
74680;BME280;63211;48.548;2.704;2023-05-29T02:01:43;100928.47;;;20.08;55.62
74680;BME280;63211;48.548;2.704;2023-05-29T02:04:09;100924.28;;;20.06;55.37
74680;BME280;63211;48.548;2.704;2023-05-29T02:06:36;100926.41;;;20.04;55.38
74680;BME280;63211;48.548;2.704;2023-05-29T02:09:03;100931.03;;;20.03;55.63
74680;BME280;63211;48.548;2.704;2023-05-29T02:11:31;100937.13;;;20.05;55.47
74680;BME280;63211;48.548;2.704;2023-05-29T02:13:57;100936.28;;;20.05;55.53
74680;BME280;63211;48.548;2.704;2023-05-29T02:16:27;100930.66;;;20.00;55.81
74680;BME280;63211;48.548;2.704;2023-05-29T02:18:55;100935.91;;;20.01;55.52
74680;BME280;63211;48.548;2.704;2023-05-29T02:21:22;100940.31;;;20.02;55.58
74680;BME280;63211;48.548;2.704;2023-05-29T02:23:49;100932.56;;;19.99;55.46
74680;BME280;63211;48.548;2.704;2023-05-29T02:26:15;100936.97;;;20.00;55.46
74680;BME280;63211;48.548;2.704;2023-05-29T02:28:42;100936.75;;;20.02;55.70
74680;BME280;63211;48.548;2.704;2023-05-29T02:31:09;100934.47;;;19.99;55.61
74680;BME280;63211;48.548;2.704;2023-05-29T02:33:35;100927.94;;;20.00;56.51
74680;BME280;63211;48.548;2.704;2023-05-29T02:36:03;100928.78;;;20.00;56.59
74680;BME280;63211;48.548;2.704;2023-05-29T02:38:36;100928.78;;;20.00;56.68
74680;BME280;63211;48.548;2.704;2023-05-29T02:41:03;100937.56;;;20.02;56.94
74680;BME280;63211;48.548;2.704;2023-05-29T02:43:31;100934.59;;;20.04;57.01
74680;BME280;63211;48.548;2.704;2023-05-29T02:45:57;100929.38;;;20.02;57.31
74680;BME280;63211;48.548;2.704;2023-05-29T02:48:24;100928.53;;;20.02;57.40
74680;BME280;63211;48.548;2.704;2023-05-29T02:50:51;100927.94;;;20.00;57.25
74680;BME280;63211;48.548;2.704;2023-05-29T02:53:19;100927.69;;;20.01;57.43
74680;BME280;63211;48.548;2.704;2023-05-29T02:55:45;100915.34;;;19.99;57.45
74680;BME280;63211;48.548;2.704;2023-05-29T02:58:13;100919.13;;;19.98;57.55
74680;BME280;63211;48.548;2.704;2023-05-29T03:00:41;100920.78;;;19.99;57.45
74680;BME280;63211;48.548;2.704;2023-05-29T03:03:08;100927.94;;;20.00;57.45
74680;BME280;63211;48.548;2.704;2023-05-29T03:05:34;100924.38;;;19.99;57.50
74680;BME280;63211;48.548;2.704;2023-05-29T03:08:01;100923.19;;;19.95;57.65
74680;BME280;63211;48.548;2.704;2023-05-29T03:10:29;100926.50;;;19.97;57.60
74680;BME280;63211;48.548;2.704;2023-05-29T03:12:56;100929.00;;;19.99;57.49
74680;BME280;63211;48.548;2.704;2023-05-29T03:15:22;100921.03;;;19.97;57.44
74680;BME280;63211;48.548;2.704;2023-05-29T03:17:49;100935.53;;;19.98;57.50
74680;BME280;63211;48.548;2.704;2023-05-29T03:20:16;100934.91;;;19.96;57.33
74680;BME280;63211;48.548;2.704;2023-05-29T03:22:42;100941.22;;;19.96;57.63
74680;BME280;63211;48.548;2.704;2023-05-29T03:25:09;100934.13;;;19.95;57.60
74680;BME280;63211;48.548;2.704;2023-05-29T03:27:37;100942.31;;;19.95;57.50
74680;BME280;63211;48.548;2.704;2023-05-29T03:30:04;100939.59;;;19.95;57.31
74680;BME280;63211;48.548;2.704;2023-05-29T03:32:31;100941.22;;;19.96;57.29
74680;BME280;63211;48.548;2.704;2023-05-29T03:34:58;100938.47;;;19.96;57.37
74680;BME280;63211;48.548;2.704;2023-05-29T03:37:25;100945.28;;;19.94;57.11
74680;BME280;63211;48.548;2.704;2023-05-29T03:39:52;100955.97;;;19.95;56.70
74680;BME280;63211;48.548;2.704;2023-05-29T03:42:19;100950.75;;;19.94;56.74
74680;BME280;63211;48.548;2.704;2023-05-29T03:44:47;100954.31;;;19.94;56.84
74680;BME280;63211;48.548;2.704;2023-05-29T03:47:14;100955.38;;;19.93;56.74
74680;BME280;63211;48.548;2.704;2023-05-29T03:49:40;100961.91;;;19.92;56.66
74680;BME280;63211;48.548;2.704;2023-05-29T03:52:07;100961.91;;;19.92;56.50
74680;BME280;63211;48.548;2.704;2023-05-29T03:54:34;100964.03;;;19.90;56.46
74680;BME280;63211;48.548;2.704;2023-05-29T03:57:01;100969.50;;;19.90;56.47
74680;BME280;63211;48.548;2.704;2023-05-29T03:59:27;100966.75;;;19.90;56.21
74680;BME280;63211;48.548;2.704;2023-05-29T04:01:55;100972.44;;;19.88;56.27
74680;BME280;63211;48.548;2.704;2023-05-29T04:04:22;100976.00;;;19.89;56.16
74680;BME280;63211;48.548;2.704;2023-05-29T04:06:48;100968.88;;;19.88;55.92
74680;BME280;63211;48.548;2.704;2023-05-29T04:09:15;100980.88;;;19.87;56.16
74680;BME280;63211;48.548;2.704;2023-05-29T04:11:42;100984.22;;;19.89;56.12
74680;BME280;63211;48.548;2.704;2023-05-29T04:14:09;100964.03;;;19.72;55.67
74680;BME280;63211;48.548;2.704;2023-05-29T04:16:36;100997.25;;;19.87;55.95
74680;BME280;63211;48.548;2.704;2023-05-29T04:19:04;100998.31;;;19.86;55.86
74680;BME280;63211;48.548;2.704;2023-05-29T04:21:31;101013.06;;;19.85;55.90
74680;BME280;63211;48.548;2.704;2023-05-29T04:23:59;101003.78;;;19.86;55.92
74680;BME280;63211;48.548;2.704;2023-05-29T04:26:26;101010.94;;;19.87;55.78
74680;BME280;63211;48.548;2.704;2023-05-29T04:28:53;101013.66;;;19.87;56.26
74680;BME280;63211;48.548;2.704;2023-05-29T04:31:22;101017.44;;;19.86;56.77
74680;BME280;63211;48.548;2.704;2023-05-29T04:33:50;101008.19;;;19.87;56.93
74680;BME280;63211;48.548;2.704;2023-05-29T04:36:22;101016.16;;;19.88;57.09
74680;BME280;63211;48.548;2.704;2023-05-29T04:38:51;101017.00;;;19.89;56.98
74680;BME280;63211;48.548;2.704;2023-05-29T04:41:18;101018.06;;;19.88;57.27
74680;BME280;63211;48.548;2.704;2023-05-29T04:43:44;101021.84;;;19.87;57.37
74680;BME280;63211;48.548;2.704;2023-05-29T04:46:11;101034.69;;;19.86;57.50
74680;BME280;63211;48.548;2.704;2023-05-29T04:48:40;101025.66;;;19.86;57.55
74680;BME280;63211;48.548;2.704;2023-05-29T04:51:09;101021.25;;;19.85;57.57
74680;BME280;63211;48.548;2.704;2023-05-29T04:53:38;101021.25;;;19.85;57.50
74680;BME280;63211;48.548;2.704;2023-05-29T04:56:05;101031.34;;;19.84;57.49
74680;BME280;63211;48.548;2.704;2023-05-29T04:58:32;101026.09;;;19.83;57.52
74680;BME280;63211;48.548;2.704;2023-05-29T05:00:59;101032.19;;;19.85;57.56
74680;BME280;63211;48.548;2.704;2023-05-29T05:03:28;101032.19;;;19.85;57.58
74680;BME280;63211;48.548;2.704;2023-05-29T05:05:56;101036.81;;;19.84;57.43
74680;BME280;63211;48.548;2.704;2023-05-29T05:08:22;101031.34;;;19.84;57.57
74680;BME280;63211;48.548;2.704;2023-05-29T05:10:50;101042.88;;;19.86;57.37
74680;BME280;63211;48.548;2.704;2023-05-29T05:13:17;101042.28;;;19.84;57.55
74680;BME280;63211;48.548;2.704;2023-05-29T05:15:43;101042.03;;;19.86;57.33
74680;BME280;63211;48.548;2.704;2023-05-29T05:18:10;101042.03;;;19.86;57.55
74680;BME280;63211;48.548;2.704;2023-05-29T05:20:37;101050.47;;;19.84;57.26
74680;BME280;63211;48.548;2.704;2023-05-29T05:23:03;101050.25;;;19.86;57.28
74680;BME280;63211;48.548;2.704;2023-05-29T05:25:30;101044.00;;;19.79;57.35
74680;BME280;63211;48.548;2.704;2023-05-29T05:27:59;101053.19;;;19.84;57.41
74680;BME280;63211;48.548;2.704;2023-05-29T05:30:26;101055.09;;;19.84;57.22
74680;BME280;63211;48.548;2.704;2023-05-29T05:32:52;101049.84;;;19.82;57.39
74680;BME280;63211;48.548;2.704;2023-05-29T05:35:19;101063.28;;;19.84;57.39
74680;BME280;63211;48.548;2.704;2023-05-29T05:37:45;101059.94;;;19.82;57.40
74680;BME280;63211;48.548;2.704;2023-05-29T05:40:12;101067.09;;;19.83;57.50
74680;BME280;63211;48.548;2.704;2023-05-29T05:42:39;101060.78;;;19.82;57.18
74680;BME280;63211;48.548;2.704;2023-05-29T05:45:08;101070.66;;;19.83;56.80
74680;BME280;63211;48.548;2.704;2023-05-29T05:47:35;101079.47;;;19.85;56.93
74680;BME280;63211;48.548;2.704;2023-05-29T05:50:02;101075.91;;;19.85;56.82
74680;BME280;63211;48.548;2.704;2023-05-29T05:52:28;101071.25;;;19.85;56.73
74680;BME280;63211;48.548;2.704;2023-05-29T05:54:56;101073.38;;;19.83;56.75
74680;BME280;63211;48.548;2.704;2023-05-29T05:57:23;101076.13;;;19.83;56.63
74680;BME280;63211;48.548;2.704;2023-05-29T05:59:50;101078.25;;;19.81;56.69
74680;BME280;63211;48.548;2.704;2023-05-29T06:02:19;101085.16;;;19.84;56.64
74680;BME280;63211;48.548;2.704;2023-05-29T06:04:46;101094.41;;;19.83;56.45
74680;BME280;63211;48.548;2.704;2023-05-29T06:07:14;101077.78;;;19.84;56.49
74680;BME280;63211;48.548;2.704;2023-05-29T06:09:40;101088.94;;;19.83;56.38
74680;BME280;63211;48.548;2.704;2023-05-29T06:12:07;101090.00;;;19.82;56.39
74680;BME280;63211;48.548;2.704;2023-05-29T06:14:34;101095.47;;;19.82;56.54
74680;BME280;63211;48.548;2.704;2023-05-29T06:17:01;101098.38;;;19.87;56.69
74680;BME280;63211;48.548;2.704;2023-05-29T06:19:29;101100.03;;;19.88;56.70
74680;BME280;63211;48.548;2.704;2023-05-29T06:21:56;101100.94;;;20.00;56.50
74680;BME280;63211;48.548;2.704;2023-05-29T06:24:23;101101.06;;;20.12;56.30
74680;BME280;63211;48.548;2.704;2023-05-29T06:26:49;101104.00;;;20.10;56.99
74680;BME280;63211;48.548;2.704;2023-05-29T06:29:16;101102.72;;;20.13;57.14
74680;BME280;63211;48.548;2.704;2023-05-29T06:31:43;101100.00;;;20.13;57.05
74680;BME280;63211;48.548;2.704;2023-05-29T06:34:09;101100.34;;;20.16;57.21
74680;BME280;63211;48.548;2.704;2023-05-29T06:36:39;101094.88;;;20.16;57.27
74680;BME280;63211;48.548;2.704;2023-05-29T06:39:07;101103.06;;;20.16;56.99
74680;BME280;63211;48.548;2.704;2023-05-29T06:41:33;101106.28;;;20.13;57.38
74680;BME280;63211;48.548;2.704;2023-05-29T06:44:00;101104.84;;;20.11;57.64
74680;BME280;63211;48.548;2.704;2023-05-29T06:46:26;101114.09;;;20.10;57.64
74680;BME280;63211;48.548;2.704;2023-05-29T06:48:53;101109.69;;;20.09;57.40
74680;BME280;63211;48.548;2.704;2023-05-29T06:51:19;101113.50;;;20.08;57.52
74680;BME280;63211;48.548;2.704;2023-05-29T06:53:49;101114.34;;;20.08;57.53
74680;BME280;63211;48.548;2.704;2023-05-29T06:56:16;101002.78;;;19.62;57.26
74680;BME280;63211;48.548;2.704;2023-05-29T06:58:43;101109.84;;;20.32;57.14
74680;BME280;63211;48.548;2.704;2023-05-29T07:01:10;101115.25;;;20.39;57.28
74680;BME280;63211;48.548;2.704;2023-05-29T07:03:37;101115.34;;;20.50;57.05
74680;BME280;63211;48.548;2.704;2023-05-29T07:06:04;101118.59;;;20.59;57.18
74680;BME280;63211;48.548;2.704;2023-05-29T07:08:31;101118.88;;;20.69;57.20
74680;BME280;63211;48.548;2.704;2023-05-29T07:10:59;101119.50;;;20.71;57.14
74680;BME280;63211;48.548;2.704;2023-05-29T07:13:26;101118.28;;;20.67;57.15
74680;BME280;63211;48.548;2.704;2023-05-29T07:15:52;101119.13;;;20.68;57.17
74680;BME280;63211;48.548;2.704;2023-05-29T07:18:19;101116.97;;;20.70;57.24
74680;BME280;63211;48.548;2.704;2023-05-29T07:20:45;101106.50;;;20.67;57.09
74680;BME280;63211;48.548;2.704;2023-05-29T07:23:12;101122.38;;;20.76;56.97
74680;BME280;63211;48.548;2.704;2023-05-29T07:25:39;101116.78;;;20.83;57.47
74680;BME280;63211;48.548;2.704;2023-05-29T07:28:07;101116.47;;;20.91;56.75
74680;BME280;63211;48.548;2.704;2023-05-29T07:30:33;101124.69;;;20.91;56.66
74680;BME280;63211;48.548;2.704;2023-05-29T07:33:00;101120.50;;;20.88;56.82
74680;BME280;63211;48.548;2.704;2023-05-29T07:35:26;101125.75;;;20.90;56.70
74680;BME280;63211;48.548;2.704;2023-05-29T07:37:53;101129.09;;;20.92;56.73
74680;BME280;63211;48.548;2.704;2023-05-29T07:40:20;101123.03;;;20.90;56.32
74680;BME280;63211;48.548;2.704;2023-05-29T07:42:47;101132.69;;;21.04;55.93
74680;BME280;63211;48.548;2.704;2023-05-29T07:45:14;101128.66;;;21.07;55.54
74680;BME280;63211;48.548;2.704;2023-05-29T07:47:41;101125.31;;;21.05;55.26
74680;BME280;63211;48.548;2.704;2023-05-29T07:50:09;101125.31;;;21.05;54.83
74680;BME280;63211;48.548;2.704;2023-05-29T07:52:35;101132.63;;;21.11;55.75
74680;BME280;63211;48.548;2.704;2023-05-29T07:55:02;101131.91;;;21.15;55.62
74680;BME280;63211;48.548;2.704;2023-05-29T07:57:29;101121.72;;;21.22;55.20
74680;BME280;63211;48.548;2.704;2023-05-29T07:59:56;101128.41;;;21.26;54.97
74680;BME280;63211;48.548;2.704;2023-05-29T08:02:24;101125.66;;;21.26;54.80
74680;BME280;63211;48.548;2.704;2023-05-29T08:04:51;101130.44;;;21.31;54.49
74680;BME280;63211;48.548;2.704;2023-05-29T08:07:18;101134.00;;;21.32;54.51
74680;BME280;63211;48.548;2.704;2023-05-29T08:09:45;101130.34;;;21.38;54.50
74680;BME280;63211;48.548;2.704;2023-05-29T08:12:12;101132.25;;;21.37;54.22
74680;BME280;63211;48.548;2.704;2023-05-29T08:14:38;101132.84;;;21.39;54.33
74680;BME280;63211;48.548;2.704;2023-05-29T08:17:05;101127.38;;;21.39;54.04
74680;BME280;63211;48.548;2.704;2023-05-29T08:19:33;101129.03;;;21.40;53.87
74680;BME280;63211;48.548;2.704;2023-05-29T08:22:00;101122.47;;;21.41;53.69
74680;BME280;63211;48.548;2.704;2023-05-29T08:24:26;101130.69;;;21.41;53.67
74680;BME280;63211;48.548;2.704;2023-05-29T08:26:53;101129.63;;;21.42;53.43
74680;BME280;63211;48.548;2.704;2023-05-29T08:29:20;101121.75;;;21.46;53.31
74680;BME280;63211;48.548;2.704;2023-05-29T08:31:46;101123.44;;;21.47;53.42
74680;BME280;63211;48.548;2.704;2023-05-29T08:34:13;101127.47;;;21.44;52.67
74680;BME280;63211;48.548;2.704;2023-05-29T08:36:41;101125.34;;;21.46;52.69
74680;BME280;63211;48.548;2.704;2023-05-29T08:39:08;101131.09;;;21.56;53.04
74680;BME280;63211;48.548;2.704;2023-05-29T08:41:42;101118.56;;;21.49;53.38
74680;BME280;63211;48.548;2.704;2023-05-29T08:44:13;101129.41;;;21.55;52.73
74680;BME280;63211;48.548;2.704;2023-05-29T08:46:40;101126.69;;;21.55;52.82
74680;BME280;63211;48.548;2.704;2023-05-29T08:49:08;101125.00;;;21.54;53.29
74680;BME280;63211;48.548;2.704;2023-05-29T08:51:37;101131.44;;;21.60;53.36
74680;BME280;63211;48.548;2.704;2023-05-29T08:54:05;101125.13;;;21.59;53.02
74680;BME280;63211;48.548;2.704;2023-05-29T08:56:32;101094.38;;;21.46;53.11
74680;BME280;63211;48.548;2.704;2023-05-29T08:59:01;101118.59;;;21.60;53.03
74680;BME280;63211;48.548;2.704;2023-05-29T09:01:28;101122.97;;;21.61;53.15
74680;BME280;63211;48.548;2.704;2023-05-29T09:03:56;101130.00;;;21.69;53.21
74680;BME280;63211;48.548;2.704;2023-05-29T09:06:23;101129.53;;;21.72;53.19
74680;BME280;63211;48.548;2.704;2023-05-29T09:08:51;101137.53;;;21.74;53.34
74680;BME280;63211;48.548;2.704;2023-05-29T09:11:19;101143.00;;;21.74;53.62
74680;BME280;63211;48.548;2.704;2023-05-29T09:13:47;101108.94;;;21.58;53.46
74680;BME280;63211;48.548;2.704;2023-05-29T09:16:15;101131.44;;;21.72;53.40
74680;BME280;63211;48.548;2.704;2023-05-29T09:18:42;101132.28;;;21.72;53.39
74680;BME280;63211;48.548;2.704;2023-05-29T09:21:25;101128.09;;;21.70;53.93
74680;BME280;63211;48.548;2.704;2023-05-29T09:23:52;101124.06;;;21.72;53.95
74680;BME280;63211;48.548;2.704;2023-05-29T09:26:21;101123.22;;;21.72;53.82
74680;BME280;63211;48.548;2.704;2023-05-29T09:28:49;101134.78;;;21.74;53.88
74680;BME280;63211;48.548;2.704;2023-05-29T09:31:16;101129.31;;;21.74;53.75
74680;BME280;63211;48.548;2.704;2023-05-29T09:33:47;101129.06;;;21.75;53.67
74680;BME280;63211;48.548;2.704;2023-05-29T09:36:19;101124.06;;;21.72;54.03
74680;BME280;63211;48.548;2.704;2023-05-29T09:38:47;101129.66;;;21.77;54.17
74680;BME280;63211;48.548;2.704;2023-05-29T09:41:21;101122.53;;;21.76;54.28
74680;BME280;63211;48.548;2.704;2023-05-29T09:43:49;101131.56;;;21.77;54.05
74680;BME280;63211;48.548;2.704;2023-05-29T09:46:16;101127.75;;;21.78;54.05
74680;BME280;63211;48.548;2.704;2023-05-29T09:48:44;101125.88;;;21.78;54.10
74680;BME280;63211;48.548;2.704;2023-05-29T09:51:19;101123.97;;;21.79;54.54
74680;BME280;63211;48.548;2.704;2023-05-29T09:53:47;101121.91;;;21.74;54.17
74680;BME280;63211;48.548;2.704;2023-05-29T09:56:16;101126.94;;;21.77;54.30
74680;BME280;63211;48.548;2.704;2023-05-29T09:58:44;101128.97;;;21.82;54.15
74680;BME280;63211;48.548;2.704;2023-05-29T10:01:12;101126.22;;;21.82;54.64
74680;BME280;63211;48.548;2.704;2023-05-29T10:03:41;101133.09;;;21.84;54.59
74680;BME280;63211;48.548;2.704;2023-05-29T10:06:10;101131.44;;;21.83;54.36
74680;BME280;63211;48.548;2.704;2023-05-29T10:08:37;101123.22;;;21.83;54.45
74680;BME280;63211;48.548;2.704;2023-05-29T10:11:09;101123.47;;;21.82;54.17
74680;BME280;63211;48.548;2.704;2023-05-29T10:13:42;101123.47;;;21.82;54.52
74680;BME280;63211;48.548;2.704;2023-05-29T10:16:15;101118.72;;;21.77;54.59
74680;BME280;63211;48.548;2.704;2023-05-29T10:18:43;101128.59;;;21.78;54.49
74680;BME280;63211;48.548;2.704;2023-05-29T10:21:11;101124.19;;;21.77;54.44
74680;BME280;63211;48.548;2.704;2023-05-29T10:23:40;101126.34;;;21.75;54.54
74680;BME280;63211;48.548;2.704;2023-05-29T10:26:12;101126.34;;;21.75;54.73
74680;BME280;63211;48.548;2.704;2023-05-29T10:28:46;101132.88;;;21.74;54.83
74680;BME280;63211;48.548;2.704;2023-05-29T10:31:19;101121.91;;;21.74;54.60
74680;BME280;63211;48.548;2.704;2023-05-29T10:33:58;101115.00;;;21.72;54.79
74680;BME280;63211;48.548;2.704;2023-05-29T10:36:30;101123.22;;;21.72;54.87
74680;BME280;63211;48.548;2.704;2023-05-29T10:38:59;101113.34;;;21.71;54.83
74680;BME280;63211;48.548;2.704;2023-05-29T10:41:29;101112.72;;;21.69;54.64
74680;BME280;63211;48.548;2.704;2023-05-29T10:43:58;101112.72;;;21.69;54.91
74680;BME280;63211;48.548;2.704;2023-05-29T10:49:26;101099.13;;;21.62;54.64
74680;BME280;63211;48.548;2.704;2023-05-29T10:51:52;101103.91;;;21.67;54.64
74680;BME280;63211;48.548;2.704;2023-05-29T10:54:21;101094.50;;;21.63;54.98
74680;BME280;63211;48.548;2.704;2023-05-29T10:56:52;101077.81;;;21.52;54.13
74680;BME280;63211;48.548;2.704;2023-05-29T10:59:19;101102.25;;;21.66;54.92
74680;BME280;63211;48.548;2.704;2023-05-29T11:01:46;101099.50;;;21.66;54.73
74680;BME280;63211;48.548;2.704;2023-05-29T11:04:27;101094.50;;;21.63;55.09
74680;BME280;63211;48.548;2.704;2023-05-29T11:06:55;101105.44;;;21.63;54.96
74680;BME280;63211;48.548;2.704;2023-05-29T11:09:27;101092.81;;;21.61;54.82
74680;BME280;63211;48.548;2.704;2023-05-29T11:12:14;101097.50;;;21.61;55.15
74680;BME280;63211;48.548;2.704;2023-05-29T11:14:53;101092.03;;;21.61;54.93
74680;BME280;63211;48.548;2.704;2023-05-29T11:17:33;101079.38;;;21.48;55.18
74680;BME280;63211;48.548;2.704;2023-05-29T11:20:28;101083.06;;;21.54;54.75
74680;BME280;63211;48.548;2.704;2023-05-29T11:23:02;101086.66;;;21.54;55.02
74680;BME280;63211;48.548;2.704;2023-05-29T11:25:34;101086.19;;;21.57;55.04
74680;BME280;63211;48.548;2.704;2023-05-29T11:28:01;101081.75;;;21.56;54.92
74680;BME280;63211;48.548;2.704;2023-05-29T11:30:29;101086.41;;;21.56;55.21
74680;BME280;63211;48.548;2.704;2023-05-29T11:32:59;101100.13;;;21.56;55.06
74680;BME280;63211;48.548;2.704;2023-05-29T11:35:30;101088.56;;;21.54;55.25
74680;BME280;63211;48.548;2.704;2023-05-29T11:37:57;101095.69;;;21.55;55.31
74680;BME280;63211;48.548;2.704;2023-05-29T11:40:23;101097.59;;;21.54;55.33
74680;BME280;63211;48.548;2.704;2023-05-29T11:42:50;101090.69;;;21.52;55.27
74680;BME280;63211;48.548;2.704;2023-05-29T11:45:19;101082.47;;;21.52;55.49
74680;BME280;63211;48.548;2.704;2023-05-29T11:47:53;101086.88;;;21.53;55.32
74680;BME280;63211;48.548;2.704;2023-05-29T11:50:20;101086.03;;;21.52;55.33
74680;BME280;63211;48.548;2.704;2023-05-29T11:52:48;101052.44;;;21.34;55.09
74680;BME280;63211;48.548;2.704;2023-05-29T11:55:17;101073.88;;;21.48;55.35
74680;BME280;63211;48.548;2.704;2023-05-29T11:57:44;101073.41;;;21.51;55.42
74680;BME280;63211;48.548;2.704;2023-05-29T12:00:13;101078.28;;;21.49;55.21
74680;BME280;63211;48.548;2.704;2023-05-29T12:02:40;101074.72;;;21.49;55.34
74680;BME280;63211;48.548;2.704;2023-05-29T12:05:08;101068.41;;;21.48;55.55
74680;BME280;63211;48.548;2.704;2023-05-29T12:07:35;101076.38;;;21.50;55.57
74680;BME280;63211;48.548;2.704;2023-05-29T12:10:13;101071.97;;;21.49;55.45
74680;BME280;63211;48.548;2.704;2023-05-29T12:12:40;101067.22;;;21.44;55.29
74680;BME280;63211;48.548;2.704;2023-05-29T12:15:08;101073.06;;;21.48;55.56
74680;BME280;63211;48.548;2.704;2023-05-29T12:17:35;101076.88;;;21.47;55.47
74680;BME280;63211;48.548;2.704;2023-05-29T12:20:03;101070.31;;;21.48;55.74
74680;BME280;63211;48.548;2.704;2023-05-29T12:22:33;101082.34;;;21.47;55.60
74680;BME280;63211;48.548;2.704;2023-05-29T12:25:06;101076.88;;;21.47;55.58
74680;BME280;63211;48.548;2.704;2023-05-29T12:27:38;101080.66;;;21.46;55.45
74680;BME280;63211;48.548;2.704;2023-05-29T12:30:09;101082.56;;;21.45;55.46
74680;BME280;63211;48.548;2.704;2023-05-29T12:32:37;101067.69;;;21.41;55.61
74680;BME280;63211;48.548;2.704;2023-05-29T12:35:11;101071.63;;;21.45;55.66
74680;BME280;63211;48.548;2.704;2023-05-29T12:37:42;101061.50;;;21.34;55.88
74680;BME280;63211;48.548;2.704;2023-05-29T12:40:10;101068.28;;;21.43;55.49
74680;BME280;63211;48.548;2.704;2023-05-29T12:42:39;101068.28;;;21.43;55.52
74680;BME280;63211;48.548;2.704;2023-05-29T12:45:07;101073.75;;;21.43;55.55
74680;BME280;63211;48.548;2.704;2023-05-29T12:47:34;101079.25;;;21.43;55.67
74680;BME280;63211;48.548;2.704;2023-05-29T12:50:06;101079.25;;;21.43;55.74
74680;BME280;63211;48.548;2.704;2023-05-29T12:52:45;101078.41;;;21.43;55.77
74680;BME280;63211;48.548;2.704;2023-05-29T12:55:11;101070.19;;;21.43;55.88
74680;BME280;63211;48.548;2.704;2023-05-29T12:57:39;101064.69;;;21.43;55.81